sensor_id;sensor_type;location;lat;lon;timestamp;temperature;humidity
37285;DHT22;23172;53.550;9.964;2023-07-29T00:58:59;27.90;68.70
37285;DHT22;23172;53.550;9.964;2023-07-29T01:04:02;22.70;97.40
37285;DHT22;23172;53.550;9.964;2023-07-29T01:34:35;22.70;97.60
37285;DHT22;23172;53.550;9.964;2023-07-29T01:39:45;22.60;98.30
37285;DHT22;23172;53.550;9.964;2023-07-29T01:44:47;22.70;98.30
37285;DHT22;23172;53.550;9.964;2023-07-29T01:54:53;22.60;98.80
37285;DHT22;23172;53.550;9.964;2023-07-29T01:59:55;22.40;99.90
37285;DHT22;23172;53.550;9.964;2023-07-29T02:04:57;22.40;99.90
37285;DHT22;23172;53.550;9.964;2023-07-29T02:10:00;22.40;99.90
37285;DHT22;23172;53.550;9.964;2023-07-29T02:15:02;22.40;99.90
37285;DHT22;23172;53.550;9.964;2023-07-29T02:20:05;22.40;99.90
37285;DHT22;23172;53.550;9.964;2023-07-29T02:25:09;22.30;99.90
37285;DHT22;23172;53.550;9.964;2023-07-29T02:30:11;22.30;99.90
37285;DHT22;23172;53.550;9.964;2023-07-29T02:35:13;22.30;99.90
37285;DHT22;23172;53.550;9.964;2023-07-29T02:40:17;22.30;99.90
37285;DHT22;23172;53.550;9.964;2023-07-29T02:45:18;22.30;99.90
37285;DHT22;23172;53.550;9.964;2023-07-29T02:50:20;22.10;99.90
37285;DHT22;23172;53.550;9.964;2023-07-29T02:55:23;22.10;99.90
37285;DHT22;23172;53.550;9.964;2023-07-29T03:00:25;22.00;99.90
37285;DHT22;23172;53.550;9.964;2023-07-29T03:05:28;22.00;99.90
37285;DHT22;23172;53.550;9.964;2023-07-29T03:10:31;22.00;99.90
37285;DHT22;23172;53.550;9.964;2023-07-29T03:15:33;21.90;99.90
37285;DHT22;23172;53.550;9.964;2023-07-29T03:20:35;21.90;99.90
37285;DHT22;23172;53.550;9.964;2023-07-29T03:25:38;21.80;99.90
37285;DHT22;23172;53.550;9.964;2023-07-29T03:30:40;21.80;99.90
37285;DHT22;23172;53.550;9.964;2023-07-29T03:35:42;21.80;99.90
37285;DHT22;23172;53.550;9.964;2023-07-29T03:40:46;21.80;99.90
37285;DHT22;23172;53.550;9.964;2023-07-29T03:45:48;21.70;99.90
37285;DHT22;23172;53.550;9.964;2023-07-29T03:50:50;21.60;99.90
37285;DHT22;23172;53.550;9.964;2023-07-29T03:55:53;21.60;99.90
37285;DHT22;23172;53.550;9.964;2023-07-29T04:00:55;21.60;99.90
37285;DHT22;23172;53.550;9.964;2023-07-29T04:05:57;21.50;99.90
37285;DHT22;23172;53.550;9.964;2023-07-29T04:11:00;21.60;99.90
37285;DHT22;23172;53.550;9.964;2023-07-29T04:16:02;21.70;99.90
37285;DHT22;23172;53.550;9.964;2023-07-29T04:21:04;21.80;99.90
37285;DHT22;23172;53.550;9.964;2023-07-29T04:26:07;21.90;99.90
37285;DHT22;23172;53.550;9.964;2023-07-29T04:31:12;22.00;99.90
37285;DHT22;23172;53.550;9.964;2023-07-29T04:36:14;22.10;99.90
37285;DHT22;23172;53.550;9.964;2023-07-29T04:41:17;22.20;99.90
37285;DHT22;23172;53.550;9.964;2023-07-29T04:46:19;22.10;99.90
37285;DHT22;23172;53.550;9.964;2023-07-29T04:51:21;22.00;99.90
37285;DHT22;23172;53.550;9.964;2023-07-29T04:56:25;22.10;99.90
37285;DHT22;23172;53.550;9.964;2023-07-29T05:01:26;22.10;99.90
37285;DHT22;23172;53.550;9.964;2023-07-29T05:06:28;22.10;99.90
37285;DHT22;23172;53.550;9.964;2023-07-29T05:11:31;22.20;99.90
37285;DHT22;23172;53.550;9.964;2023-07-29T05:16:33;22.20;99.90
37285;DHT22;23172;53.550;9.964;2023-07-29T05:21:35;22.30;99.70
37285;DHT22;23172;53.550;9.964;2023-07-29T05:26:38;22.40;99.50
37285;DHT22;23172;53.550;9.964;2023-07-29T05:31:40;22.50;99.20
37285;DHT22;23172;53.550;9.964;2023-07-29T05:36:42;22.60;99.10
37285;DHT22;23172;53.550;9.964;2023-07-29T05:41:45;22.80;98.40
37285;DHT22;23172;53.550;9.964;2023-07-29T05:46:47;23.00;98.20
37285;DHT22;23172;53.550;9.964;2023-07-29T05:51:49;23.00;97.90
37285;DHT22;23172;53.550;9.964;2023-07-29T05:56:54;23.10;97.50
37285;DHT22;23172;53.550;9.964;2023-07-29T06:01:56;23.10;97.40
37285;DHT22;23172;53.550;9.964;2023-07-29T06:06:58;23.00;97.60
37285;DHT22;23172;53.550;9.964;2023-07-29T06:12:02;22.90;97.90
37285;DHT22;23172;53.550;9.964;2023-07-29T06:17:04;23.00;97.90
37285;DHT22;23172;53.550;9.964;2023-07-29T06:22:07;23.30;97.40
37285;DHT22;23172;53.550;9.964;2023-07-29T06:27:10;23.50;97.10
37285;DHT22;23172;53.550;9.964;2023-07-29T06:32:12;23.70;96.30
37285;DHT22;23172;53.550;9.964;2023-07-29T06:37:14;23.80;96.10
37285;DHT22;23172;53.550;9.964;2023-07-29T06:42:17;24.10;95.30
37285;DHT22;23172;53.550;9.964;2023-07-29T06:47:19;24.10;94.40
37285;DHT22;23172;53.550;9.964;2023-07-29T06:52:21;24.20;94.30
37285;DHT22;23172;53.550;9.964;2023-07-29T06:57:24;24.20;94.30
37285;DHT22;23172;53.550;9.964;2023-07-29T07:02:26;23.90;94.50
37285;DHT22;23172;53.550;9.964;2023-07-29T07:07:27;23.70;95.00
37285;DHT22;23172;53.550;9.964;2023-07-29T07:12:31;23.60;95.50
37285;DHT22;23172;53.550;9.964;2023-07-29T07:17:32;23.50;95.50
37285;DHT22;23172;53.550;9.964;2023-07-29T07:22:34;23.50;95.70
37285;DHT22;23172;53.550;9.964;2023-07-29T07:27:37;23.50;95.90
37285;DHT22;23172;53.550;9.964;2023-07-29T07:32:39;23.50;95.90
37285;DHT22;23172;53.550;9.964;2023-07-29T07:37:41;23.50;96.20
37285;DHT22;23172;53.550;9.964;2023-07-29T07:42:44;23.50;96.60
37285;DHT22;23172;53.550;9.964;2023-07-29T07:47:46;23.70;96.50
37285;DHT22;23172;53.550;9.964;2023-07-29T07:52:48;23.80;95.80
37285;DHT22;23172;53.550;9.964;2023-07-29T07:57:52;23.90;95.10
37285;DHT22;23172;53.550;9.964;2023-07-29T08:02:53;23.80;95.70
37285;DHT22;23172;53.550;9.964;2023-07-29T08:07:56;23.60;97.20
37285;DHT22;23172;53.550;9.964;2023-07-29T08:13:00;23.50;97.30
37285;DHT22;23172;53.550;9.964;2023-07-29T08:18:01;23.70;96.80
37285;DHT22;23172;53.550;9.964;2023-07-29T08:23:04;23.80;96.50
37285;DHT22;23172;53.550;9.964;2023-07-29T08:28:07;23.70;96.60
37285;DHT22;23172;53.550;9.964;2023-07-29T08:33:09;23.80;96.80
37285;DHT22;23172;53.550;9.964;2023-07-29T08:38:10;23.90;96.20
37285;DHT22;23172;53.550;9.964;2023-07-29T08:43:14;23.90;96.30
37285;DHT22;23172;53.550;9.964;2023-07-29T08:48:23;24.00;95.60
37285;DHT22;23172;53.550;9.964;2023-07-29T08:53:30;23.90;95.90
37285;DHT22;23172;53.550;9.964;2023-07-29T08:58:35;24.00;95.90
37285;DHT22;23172;53.550;9.964;2023-07-29T09:03:37;23.90;96.10
37285;DHT22;23172;53.550;9.964;2023-07-29T09:08:39;23.90;96.00
37285;DHT22;23172;53.550;9.964;2023-07-29T09:13:42;24.20;95.10
37285;DHT22;23172;53.550;9.964;2023-07-29T09:18:45;25.20;92.80
37285;DHT22;23172;53.550;9.964;2023-07-29T09:23:50;25.60;90.80
37285;DHT22;23172;53.550;9.964;2023-07-29T09:28:55;25.70;89.30
37285;DHT22;23172;53.550;9.964;2023-07-29T09:44:04;25.90;88.90
37285;DHT22;23172;53.550;9.964;2023-07-29T09:49:07;30.10;63.60
37285;DHT22;23172;53.550;9.964;2023-07-29T09:54:10;32.80;62.20
37285;DHT22;23172;53.550;9.964;2023-07-29T09:59:18;35.90;55.60
37285;DHT22;23172;53.550;9.964;2023-07-29T10:04:21;39.20;49.00
37285;DHT22;23172;53.550;9.964;2023-07-29T10:09:23;41.50;45.00
37285;DHT22;23172;53.550;9.964;2023-07-29T10:14:28;42.50;41.80
37285;DHT22;23172;53.550;9.964;2023-07-29T10:19:30;42.50;39.90
37285;DHT22;23172;53.550;9.964;2023-07-29T10:24:33;43.80;37.40
37285;DHT22;23172;53.550;9.964;2023-07-29T10:29:38;42.80;35.90
37285;DHT22;23172;53.550;9.964;2023-07-29T10:34:43;38.50;39.60
37285;DHT22;23172;53.550;9.964;2023-07-29T10:39:52;35.30;42.50
37285;DHT22;23172;53.550;9.964;2023-07-29T16:13:38;32.80;45.10
37285;DHT22;23172;53.550;9.964;2023-07-29T16:28:45;28.10;50.20
37285;DHT22;23172;53.550;9.964;2023-07-29T16:33:49;25.90;55.10
37285;DHT22;23172;53.550;9.964;2023-07-29T16:38:51;25.50;58.20
37285;DHT22;23172;53.550;9.964;2023-07-29T16:43:53;25.00;59.80
37285;DHT22;23172;53.550;9.964;2023-07-29T16:48:56;24.50;62.50
37285;DHT22;23172;53.550;9.964;2023-07-29T16:59:00;24.20;64.40
37285;DHT22;23172;53.550;9.964;2023-07-29T17:04:04;24.10;65.40
37285;DHT22;23172;53.550;9.964;2023-07-29T17:09:06;24.10;66.00
37285;DHT22;23172;53.550;9.964;2023-07-29T17:14:07;24.10;66.30
37285;DHT22;23172;53.550;9.964;2023-07-29T17:19:11;24.10;67.20
37285;DHT22;23172;53.550;9.964;2023-07-29T17:24:13;23.90;68.60
